sensor_id;sensor_type;location;lat;lon;timestamp;P1;durP1;ratioP1;P2;durP2;ratioP2
19260;SDS011;9764;48.114;11.670;2022-09-23T00:02:09;2.38;;;1.85;;
19260;SDS011;9764;48.114;11.670;2022-09-23T00:04:37;2.05;;;1.85;;
19260;SDS011;9764;48.114;11.670;2022-09-23T00:07:07;2.15;;;1.90;;
19260;SDS011;9764;48.114;11.670;2022-09-23T00:09:36;2.33;;;1.90;;
19260;SDS011;9764;48.114;11.670;2022-09-23T00:12:05;2.28;;;2.08;;
19260;SDS011;9764;48.114;11.670;2022-09-23T00:14:36;2.50;;;2.28;;
19260;SDS011;9764;48.114;11.670;2022-09-23T00:17:05;2.50;;;2.13;;
19260;SDS011;9764;48.114;11.670;2022-09-23T00:19:33;2.45;;;2.17;;
19260;SDS011;9764;48.114;11.670;2022-09-23T00:22:03;2.22;;;2.03;;
19260;SDS011;9764;48.114;11.670;2022-09-23T00:24:31;2.10;;;1.90;;
19260;SDS011;9764;48.114;11.670;2022-09-23T00:27:01;3.25;;;2.30;;
19260;SDS011;9764;48.114;11.670;2022-09-23T00:29:29;2.30;;;2.10;;
19260;SDS011;9764;48.114;11.670;2022-09-23T00:31:57;2.47;;;2.03;;
19260;SDS011;9764;48.114;11.670;2022-09-23T00:34:25;2.58;;;2.20;;
19260;SDS011;9764;48.114;11.670;2022-09-23T00:36:55;2.88;;;2.10;;
19260;SDS011;9764;48.114;11.670;2022-09-23T00:39:23;2.30;;;2.10;;
19260;SDS011;9764;48.114;11.670;2022-09-23T00:41:51;2.15;;;1.95;;
19260;SDS011;9764;48.114;11.670;2022-09-23T00:44:42;2.10;;;1.90;;
19260;SDS011;9764;48.114;11.670;2022-09-23T00:47:14;2.75;;;2.20;;
19260;SDS011;9764;48.114;11.670;2022-09-23T00:49:48;3.08;;;2.22;;
19260;SDS011;9764;48.114;11.670;2022-09-23T00:52:22;2.53;;;2.10;;
19260;SDS011;9764;48.114;11.670;2022-09-23T00:54:51;4.55;;;2.13;;
19260;SDS011;9764;48.114;11.670;2022-09-23T00:57:22;2.63;;;1.95;;
19260;SDS011;9764;48.114;11.670;2022-09-23T00:59:53;2.13;;;1.92;;
19260;SDS011;9764;48.114;11.670;2022-09-23T01:02:21;2.30;;;2.10;;
19260;SDS011;9764;48.114;11.670;2022-09-23T01:04:50;2.38;;;1.90;;
19260;SDS011;9764;48.114;11.670;2022-09-23T01:07:18;1.92;;;1.67;;
19260;SDS011;9764;48.114;11.670;2022-09-23T01:09:47;3.58;;;2.10;;
19260;SDS011;9764;48.114;11.670;2022-09-23T01:12:20;1.90;;;1.70;;
19260;SDS011;9764;48.114;11.670;2022-09-23T01:15:04;2.65;;;2.25;;
19260;SDS011;9764;48.114;11.670;2022-09-23T01:17:38;2.53;;;2.00;;
19260;SDS011;9764;48.114;11.670;2022-09-23T01:23:14;1.90;;;1.80;;
19260;SDS011;9764;48.114;11.670;2022-09-23T01:26:03;1.80;;;1.67;;
19260;SDS011;9764;48.114;11.670;2022-09-23T01:28:56;2.30;;;2.10;;
19260;SDS011;9764;48.114;11.670;2022-09-23T01:31:35;2.05;;;1.83;;
19260;SDS011;9764;48.114;11.670;2022-09-23T01:34:10;1.80;;;1.70;;
19260;SDS011;9764;48.114;11.670;2022-09-23T01:36:42;2.38;;;2.08;;
19260;SDS011;9764;48.114;11.670;2022-09-23T01:39:16;2.13;;;1.65;;
19260;SDS011;9764;48.114;11.670;2022-09-23T01:41:52;2.72;;;2.13;;
19260;SDS011;9764;48.114;11.670;2022-09-23T01:44:29;1.90;;;1.70;;
19260;SDS011;9764;48.114;11.670;2022-09-23T01:47:06;2.25;;;1.98;;
19260;SDS011;9764;48.114;11.670;2022-09-23T01:49:41;1.90;;;1.77;;
19260;SDS011;9764;48.114;11.670;2022-09-23T01:52:15;2.33;;;1.85;;
19260;SDS011;9764;48.114;11.670;2022-09-23T01:54:50;1.73;;;1.63;;
19260;SDS011;9764;48.114;11.670;2022-09-23T01:57:23;2.28;;;1.65;;
19260;SDS011;9764;48.114;11.670;2022-09-23T01:59:55;2.05;;;1.80;;
19260;SDS011;9764;48.114;11.670;2022-09-23T02:02:38;2.20;;;1.85;;
19260;SDS011;9764;48.114;11.670;2022-09-23T02:05:16;2.08;;;1.88;;
19260;SDS011;9764;48.114;11.670;2022-09-23T02:07:51;2.20;;;1.77;;
19260;SDS011;9764;48.114;11.670;2022-09-23T02:10:26;1.85;;;1.70;;
19260;SDS011;9764;48.114;11.670;2022-09-23T02:13:01;2.15;;;1.75;;
19260;SDS011;9764;48.114;11.670;2022-09-23T02:15:34;1.73;;;1.63;;
19260;SDS011;9764;48.114;11.670;2022-09-23T02:18:08;1.50;;;1.38;;
19260;SDS011;9764;48.114;11.670;2022-09-23T02:20:42;1.77;;;1.60;;
19260;SDS011;9764;48.114;11.670;2022-09-23T02:23:13;2.55;;;1.95;;
19260;SDS011;9764;48.114;11.670;2022-09-23T02:25:48;2.03;;;1.75;;
19260;SDS011;9764;48.114;11.670;2022-09-23T02:28:23;1.70;;;1.60;;
19260;SDS011;9764;48.114;11.670;2022-09-23T02:30:58;1.70;;;1.60;;
19260;SDS011;9764;48.114;11.670;2022-09-23T02:33:35;1.80;;;1.70;;
19260;SDS011;9764;48.114;11.670;2022-09-23T02:36:09;2.33;;;1.70;;
19260;SDS011;9764;48.114;11.670;2022-09-23T02:38:43;1.60;;;1.50;;
19260;SDS011;9764;48.114;11.670;2022-09-23T02:41:17;1.42;;;1.33;;
19260;SDS011;9764;48.114;11.670;2022-09-23T02:43:53;1.60;;;1.50;;
19260;SDS011;9764;48.114;11.670;2022-09-23T02:46:27;1.80;;;1.40;;
19260;SDS011;9764;48.114;11.670;2022-09-23T02:48:59;1.60;;;1.50;;
19260;SDS011;9764;48.114;11.670;2022-09-23T02:51:31;1.67;;;1.45;;
19260;SDS011;9764;48.114;11.670;2022-09-23T02:54:03;1.50;;;1.40;;
19260;SDS011;9764;48.114;11.670;2022-09-23T02:56:33;1.77;;;1.67;;
19260;SDS011;9764;48.114;11.670;2022-09-23T02:59:02;2.72;;;1.83;;
19260;SDS011;9764;48.114;11.670;2022-09-23T03:01:34;1.75;;;1.63;;
19260;SDS011;9764;48.114;11.670;2022-09-23T03:04:11;1.85;;;1.50;;
19260;SDS011;9764;48.114;11.670;2022-09-23T03:06:46;1.52;;;1.40;;
19260;SDS011;9764;48.114;11.670;2022-09-23T03:09:23;1.98;;;1.55;;
19260;SDS011;9764;48.114;11.670;2022-09-23T03:11:55;1.60;;;1.50;;
19260;SDS011;9764;48.114;11.670;2022-09-23T03:14:42;2.20;;;1.40;;
19260;SDS011;9764;48.114;11.670;2022-09-23T03:17:19;1.50;;;1.40;;
19260;SDS011;9764;48.114;11.670;2022-09-23T03:19:56;1.40;;;1.30;;
19260;SDS011;9764;48.114;11.670;2022-09-23T03:22:30;2.40;;;1.30;;
19260;SDS011;9764;48.114;11.670;2022-09-23T03:25:05;1.58;;;1.48;;
19260;SDS011;9764;48.114;11.670;2022-09-23T03:27:38;1.50;;;1.40;;
19260;SDS011;9764;48.114;11.670;2022-09-23T03:30:08;1.75;;;1.50;;
19260;SDS011;9764;48.114;11.670;2022-09-23T03:32:38;1.70;;;1.50;;
19260;SDS011;9764;48.114;11.670;2022-09-23T03:35:12;1.45;;;1.35;;
19260;SDS011;9764;48.114;11.670;2022-09-23T03:37:43;2.05;;;1.20;;
19260;SDS011;9764;48.114;11.670;2022-09-23T03:40:15;1.20;;;1.10;;
19260;SDS011;9764;48.114;11.670;2022-09-23T03:42:46;1.20;;;1.10;;
19260;SDS011;9764;48.114;11.670;2022-09-23T03:45:16;1.42;;;1.30;;
19260;SDS011;9764;48.114;11.670;2022-09-23T03:47:48;1.30;;;1.20;;
19260;SDS011;9764;48.114;11.670;2022-09-23T03:50:17;1.38;;;1.27;;
19260;SDS011;9764;48.114;11.670;2022-09-23T03:52:46;2.08;;;1.48;;
19260;SDS011;9764;48.114;11.670;2022-09-23T03:55:15;1.88;;;1.23;;
19260;SDS011;9764;48.114;11.670;2022-09-23T03:57:44;1.00;;;1.00;;
19260;SDS011;9764;48.114;11.670;2022-09-23T04:00:13;1.10;;;1.10;;
19260;SDS011;9764;48.114;11.670;2022-09-23T04:02:42;1.63;;;1.23;;
19260;SDS011;9764;48.114;11.670;2022-09-23T04:05:11;1.42;;;1.33;;
19260;SDS011;9764;48.114;11.670;2022-09-23T04:07:41;1.30;;;1.20;;
19260;SDS011;9764;48.114;11.670;2022-09-23T04:10:09;1.50;;;1.13;;
19260;SDS011;9764;48.114;11.670;2022-09-23T04:12:38;1.45;;;1.10;;
19260;SDS011;9764;48.114;11.670;2022-09-23T04:15:06;1.42;;;1.33;;
19260;SDS011;9764;48.114;11.670;2022-09-23T04:17:35;1.40;;;1.10;;
19260;SDS011;9764;48.114;11.670;2022-09-23T04:20:03;1.50;;;1.33;;
19260;SDS011;9764;48.114;11.670;2022-09-23T04:22:32;1.20;;;1.10;;
19260;SDS011;9764;48.114;11.670;2022-09-23T04:25:02;1.17;;;1.08;;
19260;SDS011;9764;48.114;11.670;2022-09-23T04:27:30;1.50;;;1.00;;
19260;SDS011;9764;48.114;11.670;2022-09-23T04:30:03;1.40;;;1.23;;
19260;SDS011;9764;48.114;11.670;2022-09-23T04:32:32;1.15;;;1.05;;
19260;SDS011;9764;48.114;11.670;2022-09-23T04:35:00;1.33;;;1.10;;
19260;SDS011;9764;48.114;11.670;2022-09-23T04:37:28;1.20;;;1.10;;
19260;SDS011;9764;48.114;11.670;2022-09-23T04:39:56;1.30;;;1.20;;
19260;SDS011;9764;48.114;11.670;2022-09-23T04:42:28;1.45;;;1.35;;
19260;SDS011;9764;48.114;11.670;2022-09-23T04:44:56;1.75;;;1.30;;
19260;SDS011;9764;48.114;11.670;2022-09-23T04:47:24;2.60;;;1.10;;
19260;SDS011;9764;48.114;11.670;2022-09-23T04:49:52;1.30;;;1.20;;
19260;SDS011;9764;48.114;11.670;2022-09-23T04:52:25;1.63;;;1.48;;
19260;SDS011;9764;48.114;11.670;2022-09-23T04:54:53;1.27;;;1.10;;
19260;SDS011;9764;48.114;11.670;2022-09-23T04:57:21;1.50;;;1.40;;
19260;SDS011;9764;48.114;11.670;2022-09-23T04:59:51;1.50;;;1.40;;
19260;SDS011;9764;48.114;11.670;2022-09-23T05:02:20;1.20;;;1.10;;
19260;SDS011;9764;48.114;11.670;2022-09-23T05:04:48;1.30;;;1.20;;
19260;SDS011;9764;48.114;11.670;2022-09-23T05:07:16;1.20;;;1.10;;
19260;SDS011;9764;48.114;11.670;2022-09-23T05:09:44;1.17;;;1.08;;
19260;SDS011;9764;48.114;11.670;2022-09-23T05:12:13;1.55;;;1.20;;
19260;SDS011;9764;48.114;11.670;2022-09-23T05:14:41;1.40;;;1.30;;
19260;SDS011;9764;48.114;11.670;2022-09-23T05:17:10;1.40;;;1.30;;
19260;SDS011;9764;48.114;11.670;2022-09-23T05:19:39;1.77;;;1.38;;
19260;SDS011;9764;48.114;11.670;2022-09-23T05:22:11;1.75;;;1.17;;
19260;SDS011;9764;48.114;11.670;2022-09-23T05:24:42;1.23;;;1.13;;
19260;SDS011;9764;48.114;11.670;2022-09-23T05:27:11;1.60;;;1.02;;
19260;SDS011;9764;48.114;11.670;2022-09-23T05:29:39;1.60;;;1.30;;
19260;SDS011;9764;48.114;11.670;2022-09-23T05:32:08;1.38;;;1.27;;
19260;SDS011;9764;48.114;11.670;2022-09-23T05:34:37;1.38;;;1.27;;
19260;SDS011;9764;48.114;11.670;2022-09-23T05:37:05;1.42;;;1.30;;
19260;SDS011;9764;48.114;11.670;2022-09-23T05:39:34;1.40;;;1.30;;
19260;SDS011;9764;48.114;11.670;2022-09-23T05:42:02;1.25;;;1.15;;
19260;SDS011;9764;48.114;11.670;2022-09-23T05:44:31;1.33;;;1.23;;
19260;SDS011;9764;48.114;11.670;2022-09-23T05:46:59;1.10;;;1.00;;
19260;SDS011;9764;48.114;11.670;2022-09-23T05:49:28;1.30;;;1.20;;
19260;SDS011;9764;48.114;11.670;2022-09-23T05:52:17;1.50;;;1.40;;
19260;SDS011;9764;48.114;11.670;2022-09-23T05:54:45;1.10;;;1.00;;
19260;SDS011;9764;48.114;11.670;2022-09-23T05:57:15;1.33;;;1.10;;
19260;SDS011;9764;48.114;11.670;2022-09-23T05:59:44;1.13;;;1.00;;
19260;SDS011;9764;48.114;11.670;2022-09-23T06:02:13;1.08;;;0.98;;
19260;SDS011;9764;48.114;11.670;2022-09-23T06:04:41;1.10;;;1.00;;
19260;SDS011;9764;48.114;11.670;2022-09-23T06:07:32;1.33;;;0.95;;
19260;SDS011;9764;48.114;11.670;2022-09-23T06:10:00;1.00;;;1.00;;
19260;SDS011;9764;48.114;11.670;2022-09-23T06:12:28;1.27;;;1.10;;
19260;SDS011;9764;48.114;11.670;2022-09-23T06:14:57;1.20;;;1.10;;
19260;SDS011;9764;48.114;11.670;2022-09-23T06:17:26;1.33;;;1.10;;
19260;SDS011;9764;48.114;11.670;2022-09-23T06:19:54;1.30;;;1.20;;
19260;SDS011;9764;48.114;11.670;2022-09-23T06:22:23;1.17;;;1.08;;
19260;SDS011;9764;48.114;11.670;2022-09-23T06:24:53;1.30;;;1.20;;
19260;SDS011;9764;48.114;11.670;2022-09-23T06:27:21;1.48;;;1.35;;
19260;SDS011;9764;48.114;11.670;2022-09-23T06:29:49;1.27;;;1.10;;
19260;SDS011;9764;48.114;11.670;2022-09-23T06:32:18;1.20;;;1.10;;
19260;SDS011;9764;48.114;11.670;2022-09-23T06:34:47;1.98;;;1.30;;
19260;SDS011;9764;48.114;11.670;2022-09-23T06:37:17;2.53;;;1.30;;
19260;SDS011;9764;48.114;11.670;2022-09-23T06:39:46;1.77;;;1.30;;
19260;SDS011;9764;48.114;11.670;2022-09-23T06:42:16;1.40;;;1.30;;
19260;SDS011;9764;48.114;11.670;2022-09-23T06:44:44;1.40;;;1.17;;
19260;SDS011;9764;48.114;11.670;2022-09-23T06:47:12;1.60;;;1.30;;
19260;SDS011;9764;48.114;11.670;2022-09-23T06:49:40;3.20;;;1.00;;
19260;SDS011;9764;48.114;11.670;2022-09-23T06:52:09;1.55;;;1.20;;
19260;SDS011;9764;48.114;11.670;2022-09-23T06:54:37;4.07;;;1.30;;
19260;SDS011;9764;48.114;11.670;2022-09-23T06:57:06;3.13;;;1.08;;
19260;SDS011;9764;48.114;11.670;2022-09-23T06:59:36;2.80;;;1.30;;
19260;SDS011;9764;48.114;11.670;2022-09-23T07:02:05;2.75;;;1.20;;
19260;SDS011;9764;48.114;11.670;2022-09-23T07:04:33;2.47;;;1.25;;
19260;SDS011;9764;48.114;11.670;2022-09-23T07:07:02;3.65;;;1.13;;
19260;SDS011;9764;48.114;11.670;2022-09-23T07:09:30;2.42;;;1.15;;
19260;SDS011;9764;48.114;11.670;2022-09-23T07:11:58;1.55;;;1.23;;
19260;SDS011;9764;48.114;11.670;2022-09-23T07:14:27;3.17;;;1.42;;
19260;SDS011;9764;48.114;11.670;2022-09-23T07:16:56;3.85;;;1.30;;
19260;SDS011;9764;48.114;11.670;2022-09-23T07:19:25;3.70;;;1.20;;
19260;SDS011;9764;48.114;11.670;2022-09-23T07:21:53;2.45;;;1.20;;
19260;SDS011;9764;48.114;11.670;2022-09-23T07:24:22;4.70;;;1.48;;
19260;SDS011;9764;48.114;11.670;2022-09-23T07:26:50;1.33;;;1.20;;
19260;SDS011;9764;48.114;11.670;2022-09-23T07:29:19;2.78;;;1.20;;
19260;SDS011;9764;48.114;11.670;2022-09-23T07:31:47;1.95;;;1.33;;
19260;SDS011;9764;48.114;11.670;2022-09-23T07:34:17;1.80;;;1.25;;
19260;SDS011;9764;48.114;11.670;2022-09-23T07:36:45;1.10;;;1.00;;
19260;SDS011;9764;48.114;11.670;2022-09-23T07:39:14;3.92;;;1.20;;
19260;SDS011;9764;48.114;11.670;2022-09-23T07:41:42;1.55;;;1.40;;
19260;SDS011;9764;48.114;11.670;2022-09-23T07:44:11;1.30;;;1.20;;
19260;SDS011;9764;48.114;11.670;2022-09-23T07:46:39;2.25;;;1.30;;
19260;SDS011;9764;48.114;11.670;2022-09-23T07:49:07;1.48;;;1.35;;
19260;SDS011;9764;48.114;11.670;2022-09-23T07:51:37;1.27;;;1.17;;
19260;SDS011;9764;48.114;11.670;2022-09-23T07:54:08;1.40;;;1.30;;
19260;SDS011;9764;48.114;11.670;2022-09-23T07:56:38;3.33;;;1.40;;
19260;SDS011;9764;48.114;11.670;2022-09-23T07:59:09;1.58;;;1.40;;
19260;SDS011;9764;48.114;11.670;2022-09-23T08:01:41;2.72;;;1.27;;
19260;SDS011;9764;48.114;11.670;2022-09-23T08:04:11;3.88;;;1.40;;
19260;SDS011;9764;48.114;11.670;2022-09-23T08:06:45;1.92;;;1.20;;
19260;SDS011;9764;48.114;11.670;2022-09-23T08:09:14;1.90;;;1.73;;
19260;SDS011;9764;48.114;11.670;2022-09-23T08:11:44;1.85;;;1.23;;
19260;SDS011;9764;48.114;11.670;2022-09-23T08:14:13;1.40;;;1.30;;
19260;SDS011;9764;48.114;11.670;2022-09-23T08:16:43;1.45;;;1.33;;
19260;SDS011;9764;48.114;11.670;2022-09-23T08:19:13;3.65;;;1.45;;
19260;SDS011;9764;48.114;11.670;2022-09-23T08:21:41;1.88;;;1.58;;
19260;SDS011;9764;48.114;11.670;2022-09-23T08:24:14;4.35;;;1.38;;
19260;SDS011;9764;48.114;11.670;2022-09-23T08:26:44;1.80;;;1.10;;
19260;SDS011;9764;48.114;11.670;2022-09-23T08:29:14;1.98;;;1.50;;
19260;SDS011;9764;48.114;11.670;2022-09-23T08:31:43;5.00;;;1.63;;
19260;SDS011;9764;48.114;11.670;2022-09-23T08:34:12;4.30;;;1.70;;
19260;SDS011;9764;48.114;11.670;2022-09-23T08:36:40;2.22;;;1.52;;
19260;SDS011;9764;48.114;11.670;2022-09-23T08:39:11;3.13;;;1.40;;
19260;SDS011;9764;48.114;11.670;2022-09-23T08:41:44;2.75;;;1.45;;
19260;SDS011;9764;48.114;11.670;2022-09-23T08:44:20;2.92;;;1.20;;
19260;SDS011;9764;48.114;11.670;2022-09-23T08:46:53;11.20;;;2.25;;
19260;SDS011;9764;48.114;11.670;2022-09-23T08:49:29;9.48;;;1.60;;
19260;SDS011;9764;48.114;11.670;2022-09-23T08:52:04;2.47;;;1.42;;
19260;SDS011;9764;48.114;11.670;2022-09-23T08:54:37;2.50;;;1.42;;
19260;SDS011;9764;48.114;11.670;2022-09-23T08:57:06;2.60;;;1.63;;
19260;SDS011;9764;48.114;11.670;2022-09-23T08:59:45;2.17;;;1.60;;
19260;SDS011;9764;48.114;11.670;2022-09-23T09:02:17;2.60;;;1.67;;
19260;SDS011;9764;48.114;11.670;2022-09-23T09:04:48;1.75;;;1.30;;
19260;SDS011;9764;48.114;11.670;2022-09-23T09:07:20;6.80;;;1.63;;
19260;SDS011;9764;48.114;11.670;2022-09-23T09:10:08;3.28;;;1.35;;
19260;SDS011;9764;48.114;11.670;2022-09-23T09:12:42;1.63;;;1.40;;
19260;SDS011;9764;48.114;11.670;2022-09-23T09:15:13;1.60;;;1.40;;
19260;SDS011;9764;48.114;11.670;2022-09-23T09:17:44;1.92;;;1.50;;
19260;SDS011;9764;48.114;11.670;2022-09-23T09:20:22;2.55;;;1.40;;
19260;SDS011;9764;48.114;11.670;2022-09-23T09:22:58;5.97;;;1.88;;
19260;SDS011;9764;48.114;11.670;2022-09-23T09:25:37;2.40;;;1.60;;
19260;SDS011;9764;48.114;11.670;2022-09-23T09:28:13;8.85;;;2.33;;
19260;SDS011;9764;48.114;11.670;2022-09-23T09:30:46;2.10;;;1.40;;
19260;SDS011;9764;48.114;11.670;2022-09-23T09:33:18;2.13;;;1.60;;
19260;SDS011;9764;48.114;11.670;2022-09-23T09:35:57;1.60;;;1.50;;
19260;SDS011;9764;48.114;11.670;2022-09-23T09:38:34;1.98;;;1.83;;
19260;SDS011;9764;48.114;11.670;2022-09-23T09:41:09;3.25;;;1.70;;
19260;SDS011;9764;48.114;11.670;2022-09-23T09:43:40;1.90;;;1.30;;
19260;SDS011;9764;48.114;11.670;2022-09-23T09:46:17;1.92;;;1.45;;
19260;SDS011;9764;48.114;11.670;2022-09-23T09:49:01;4.80;;;1.77;;
19260;SDS011;9764;48.114;11.670;2022-09-23T09:51:32;2.47;;;1.40;;
19260;SDS011;9764;48.114;11.670;2022-09-23T09:54:14;3.20;;;1.67;;
19260;SDS011;9764;48.114;11.670;2022-09-23T09:56:45;2.28;;;1.35;;
19260;SDS011;9764;48.114;11.670;2022-09-23T09:59:19;6.10;;;1.83;;
19260;SDS011;9764;48.114;11.670;2022-09-23T10:02:10;2.88;;;1.80;;
19260;SDS011;9764;48.114;11.670;2022-09-23T10:04:40;2.20;;;1.40;;
19260;SDS011;9764;48.114;11.670;2022-09-23T10:07:10;1.58;;;1.48;;
19260;SDS011;9764;48.114;11.670;2022-09-23T10:09:46;2.75;;;1.80;;
19260;SDS011;9764;48.114;11.670;2022-09-23T10:12:18;2.20;;;1.60;;
19260;SDS011;9764;48.114;11.670;2022-09-23T10:14:47;6.13;;;1.80;;
19260;SDS011;9764;48.114;11.670;2022-09-23T10:17:18;2.58;;;1.70;;
19260;SDS011;9764;48.114;11.670;2022-09-23T10:19:48;2.17;;;1.70;;
19260;SDS011;9764;48.114;11.670;2022-09-23T10:22:25;2.28;;;1.60;;
19260;SDS011;9764;48.114;11.670;2022-09-23T10:24:56;4.57;;;1.90;;
19260;SDS011;9764;48.114;11.670;2022-09-23T10:27:30;4.10;;;1.98;;
19260;SDS011;9764;48.114;11.670;2022-09-23T10:30:00;2.75;;;1.67;;
19260;SDS011;9764;48.114;11.670;2022-09-23T10:32:32;4.88;;;1.50;;
19260;SDS011;9764;48.114;11.670;2022-09-23T10:35:12;3.13;;;1.88;;
19260;SDS011;9764;48.114;11.670;2022-09-23T10:37:43;3.97;;;1.70;;
19260;SDS011;9764;48.114;11.670;2022-09-23T10:40:15;1.98;;;1.70;;
19260;SDS011;9764;48.114;11.670;2022-09-23T10:46:17;1.50;;;1.40;;
19260;SDS011;9764;48.114;11.670;2022-09-23T10:52:04;3.20;;;1.83;;
19260;SDS011;9764;48.114;11.670;2022-09-23T10:54:51;5.20;;;1.90;;
19260;SDS011;9764;48.114;11.670;2022-09-23T10:57:30;2.17;;;1.55;;
19260;SDS011;9764;48.114;11.670;2022-09-23T11:00:14;1.50;;;1.40;;
19260;SDS011;9764;48.114;11.670;2022-09-23T11:02:57;2.45;;;1.48;;
19260;SDS011;9764;48.114;11.670;2022-09-23T11:05:44;2.35;;;1.27;;
19260;SDS011;9764;48.114;11.670;2022-09-23T11:08:27;4.90;;;1.77;;
19260;SDS011;9764;48.114;11.670;2022-09-23T11:11:05;2.80;;;1.60;;
19260;SDS011;9764;48.114;11.670;2022-09-23T11:13:52;1.95;;;1.30;;
19260;SDS011;9764;48.114;11.670;2022-09-23T11:16:47;2.00;;;1.35;;
19260;SDS011;9764;48.114;11.670;2022-09-23T11:19:55;2.35;;;1.73;;
19260;SDS011;9764;48.114;11.670;2022-09-23T11:22:32;1.63;;;1.42;;
19260;SDS011;9764;48.114;11.670;2022-09-23T11:25:23;2.03;;;1.50;;
19260;SDS011;9764;48.114;11.670;2022-09-23T11:28:05;2.47;;;1.52;;
19260;SDS011;9764;48.114;11.670;2022-09-23T11:30:50;1.42;;;1.33;;
19260;SDS011;9764;48.114;11.670;2022-09-23T11:33:30;4.13;;;1.50;;
19260;SDS011;9764;48.114;11.670;2022-09-23T11:36:07;1.33;;;1.23;;
19260;SDS011;9764;48.114;11.670;2022-09-23T11:38:42;1.40;;;1.30;;
19260;SDS011;9764;48.114;11.670;2022-09-23T11:41:14;3.30;;;1.83;;
19260;SDS011;9764;48.114;11.670;2022-09-23T11:43:49;2.30;;;1.30;;
19260;SDS011;9764;48.114;11.670;2022-09-23T11:46:26;2.00;;;1.50;;
19260;SDS011;9764;48.114;11.670;2022-09-23T11:49:04;5.25;;;1.40;;
19260;SDS011;9764;48.114;11.670;2022-09-23T11:51:39;1.52;;;1.40;;
19260;SDS011;9764;48.114;11.670;2022-09-23T11:54:13;2.67;;;1.30;;
19260;SDS011;9764;48.114;11.670;2022-09-23T11:56:47;2.33;;;1.48;;
19260;SDS011;9764;48.114;11.670;2022-09-23T11:59:23;2.35;;;1.50;;
19260;SDS011;9764;48.114;11.670;2022-09-23T12:02:09;1.58;;;1.20;;
19260;SDS011;9764;48.114;11.670;2022-09-23T12:04:50;1.77;;;1.10;;
19260;SDS011;9764;48.114;11.670;2022-09-23T12:07:30;1.98;;;1.75;;
19260;SDS011;9764;48.114;11.670;2022-09-23T12:10:07;1.48;;;1.38;;
19260;SDS011;9764;48.114;11.670;2022-09-23T12:12:39;2.55;;;1.40;;
19260;SDS011;9764;48.114;11.670;2022-09-23T12:15:18;2.42;;;1.60;;
19260;SDS011;9764;48.114;11.670;2022-09-23T12:17:56;2.28;;;1.50;;
19260;SDS011;9764;48.114;11.670;2022-09-23T12:23:35;1.60;;;1.30;;
19260;SDS011;9764;48.114;11.670;2022-09-23T12:26:18;2.45;;;1.50;;
19260;SDS011;9764;48.114;11.670;2022-09-23T12:28:50;2.20;;;1.52;;
19260;SDS011;9764;48.114;11.670;2022-09-23T12:31:22;2.28;;;1.30;;
19260;SDS011;9764;48.114;11.670;2022-09-23T12:33:56;1.30;;;1.20;;
19260;SDS011;9764;48.114;11.670;2022-09-23T12:36:30;1.92;;;1.40;;
19260;SDS011;9764;48.114;11.670;2022-09-23T12:39:02;2.53;;;1.45;;
19260;SDS011;9764;48.114;11.670;2022-09-23T12:41:33;3.10;;;1.40;;
19260;SDS011;9764;48.114;11.670;2022-09-23T12:44:14;1.85;;;1.30;;
19260;SDS011;9764;48.114;11.670;2022-09-23T12:59:56;2.00;;;1.20;;
19260;SDS011;9764;48.114;11.670;2022-09-23T13:02:26;1.42;;;1.30;;
19260;SDS011;9764;48.114;11.670;2022-09-23T13:05:18;1.58;;;1.48;;
19260;SDS011;9764;48.114;11.670;2022-09-23T13:08:07;2.25;;;1.23;;
19260;SDS011;9764;48.114;11.670;2022-09-23T13:10:43;2.13;;;1.50;;
19260;SDS011;9764;48.114;11.670;2022-09-23T13:13:16;1.40;;;1.30;;
19260;SDS011;9764;48.114;11.670;2022-09-23T13:15:50;1.17;;;1.08;;
19260;SDS011;9764;48.114;11.670;2022-09-23T13:18:29;1.48;;;1.13;;
19260;SDS011;9764;48.114;11.670;2022-09-23T13:24:45;2.25;;;1.40;;
19260;SDS011;9764;48.114;11.670;2022-09-23T13:27:21;3.72;;;1.52;;
19260;SDS011;9764;48.114;11.670;2022-09-23T13:29:57;3.88;;;1.40;;
19260;SDS011;9764;48.114;11.670;2022-09-23T13:32:29;3.47;;;1.25;;
19260;SDS011;9764;48.114;11.670;2022-09-23T13:35:01;4.00;;;1.38;;
19260;SDS011;9764;48.114;11.670;2022-09-23T13:37:39;3.42;;;1.40;;
19260;SDS011;9764;48.114;11.670;2022-09-23T13:40:17;1.52;;;1.33;;
19260;SDS011;9764;48.114;11.670;2022-09-23T13:42:51;1.52;;;1.23;;
19260;SDS011;9764;48.114;11.670;2022-09-23T13:45:24;3.45;;;1.85;;
19260;SDS011;9764;48.114;11.670;2022-09-23T13:47:54;1.42;;;1.13;;
19260;SDS011;9764;48.114;11.670;2022-09-23T13:50:28;3.45;;;1.38;;
19260;SDS011;9764;48.114;11.670;2022-09-23T13:53:01;3.10;;;1.20;;
19260;SDS011;9764;48.114;11.670;2022-09-23T13:55:35;2.80;;;1.40;;
19260;SDS011;9764;48.114;11.670;2022-09-23T13:58:12;1.63;;;1.20;;
19260;SDS011;9764;48.114;11.670;2022-09-23T14:00:47;1.40;;;1.30;;
19260;SDS011;9764;48.114;11.670;2022-09-23T14:03:16;1.58;;;1.20;;
19260;SDS011;9764;48.114;11.670;2022-09-23T14:05:50;1.40;;;1.30;;
19260;SDS011;9764;48.114;11.670;2022-09-23T14:08:19;0.98;;;0.90;;
19260;SDS011;9764;48.114;11.670;2022-09-23T14:10:48;2.42;;;1.10;;
19260;SDS011;9764;48.114;11.670;2022-09-23T14:13:19;1.27;;;1.10;;
19260;SDS011;9764;48.114;11.670;2022-09-23T14:15:52;3.42;;;1.10;;
19260;SDS011;9764;48.114;11.670;2022-09-23T14:18:26;1.70;;;1.20;;
19260;SDS011;9764;48.114;11.670;2022-09-23T14:21:01;1.42;;;1.30;;
19260;SDS011;9764;48.114;11.670;2022-09-23T14:23:29;1.15;;;1.05;;
19260;SDS011;9764;48.114;11.670;2022-09-23T14:25:58;2.28;;;1.48;;
19260;SDS011;9764;48.114;11.670;2022-09-23T14:28:29;1.27;;;1.17;;
19260;SDS011;9764;48.114;11.670;2022-09-23T14:30:57;1.27;;;1.10;;
19260;SDS011;9764;48.114;11.670;2022-09-23T14:33:27;1.30;;;1.20;;
19260;SDS011;9764;48.114;11.670;2022-09-23T14:36:00;2.85;;;1.35;;
19260;SDS011;9764;48.114;11.670;2022-09-23T14:38:32;1.10;;;1.00;;
19260;SDS011;9764;48.114;11.670;2022-09-23T14:41:19;2.35;;;0.98;;
19260;SDS011;9764;48.114;11.670;2022-09-23T14:43:52;1.17;;;1.08;;
19260;SDS011;9764;48.114;11.670;2022-09-23T14:46:24;1.27;;;1.17;;
19260;SDS011;9764;48.114;11.670;2022-09-23T14:48:55;1.15;;;1.05;;
19260;SDS011;9764;48.114;11.670;2022-09-23T14:51:30;0.88;;;0.88;;
19260;SDS011;9764;48.114;11.670;2022-09-23T14:56:59;1.48;;;1.20;;
19260;SDS011;9764;48.114;11.670;2022-09-23T14:59:32;1.30;;;1.20;;
19260;SDS011;9764;48.114;11.670;2022-09-23T15:02:02;1.42;;;1.30;;
19260;SDS011;9764;48.114;11.670;2022-09-23T15:05:14;2.03;;;1.40;;
19260;SDS011;9764;48.114;11.670;2022-09-23T15:07:48;1.20;;;1.10;;
19260;SDS011;9764;48.114;11.670;2022-09-23T15:10:20;1.10;;;1.00;;
19260;SDS011;9764;48.114;11.670;2022-09-23T15:12:50;1.20;;;1.10;;
19260;SDS011;9764;48.114;11.670;2022-09-23T15:15:22;1.10;;;1.00;;
19260;SDS011;9764;48.114;11.670;2022-09-23T15:17:53;1.13;;;1.02;;
19260;SDS011;9764;48.114;11.670;2022-09-23T15:20:23;1.42;;;1.33;;
19260;SDS011;9764;48.114;11.670;2022-09-23T15:22:53;2.33;;;1.10;;
19260;SDS011;9764;48.114;11.670;2022-09-23T15:25:24;1.23;;;1.13;;
19260;SDS011;9764;48.114;11.670;2022-09-23T15:27:55;0.80;;;0.80;;
19260;SDS011;9764;48.114;11.670;2022-09-23T15:30:26;1.52;;;1.10;;
19260;SDS011;9764;48.114;11.670;2022-09-23T15:32:54;1.55;;;1.40;;
19260;SDS011;9764;48.114;11.670;2022-09-23T15:35:23;1.30;;;1.20;;
19260;SDS011;9764;48.114;11.670;2022-09-23T15:37:53;1.20;;;1.10;;
19260;SDS011;9764;48.114;11.670;2022-09-23T15:40:24;1.00;;;0.98;;
19260;SDS011;9764;48.114;11.670;2022-09-23T15:42:54;1.00;;;1.00;;
19260;SDS011;9764;48.114;11.670;2022-09-23T15:45:29;1.02;;;0.95;;
19260;SDS011;9764;48.114;11.670;2022-09-23T15:48:00;1.40;;;1.30;;
19260;SDS011;9764;48.114;11.670;2022-09-23T15:50:33;1.20;;;1.10;;
19260;SDS011;9764;48.114;11.670;2022-09-23T15:53:02;0.90;;;0.90;;
19260;SDS011;9764;48.114;11.670;2022-09-23T15:55:31;1.38;;;1.23;;